sensor_id;sensor_type;location;lat;lon;timestamp;temperature;humidity
22940;DHT22;11636;52.086;5.090;2023-04-25T00:02:09;6.40;99.90
22940;DHT22;11636;52.086;5.090;2023-04-25T00:05:03;6.30;99.90
22940;DHT22;11636;52.086;5.090;2023-04-25T00:07:52;6.30;99.90
22940;DHT22;11636;52.086;5.090;2023-04-25T00:10:46;6.30;99.90
22940;DHT22;11636;52.086;5.090;2023-04-25T00:13:40;6.30;99.90
22940;DHT22;11636;52.086;5.090;2023-04-25T00:16:29;6.40;99.90
22940;DHT22;11636;52.086;5.090;2023-04-25T00:19:26;6.30;99.90
22940;DHT22;11636;52.086;5.090;2023-04-25T00:22:15;6.20;99.90
22940;DHT22;11636;52.086;5.090;2023-04-25T00:25:09;6.10;99.90
22940;DHT22;11636;52.086;5.090;2023-04-25T00:27:56;6.10;99.90
22940;DHT22;11636;52.086;5.090;2023-04-25T00:30:50;6.00;99.90
22940;DHT22;11636;52.086;5.090;2023-04-25T00:33:37;6.00;99.90
22940;DHT22;11636;52.086;5.090;2023-04-25T00:36:31;5.90;99.90
22940;DHT22;11636;52.086;5.090;2023-04-25T00:39:25;5.90;99.90
22940;DHT22;11636;52.086;5.090;2023-04-25T00:42:12;5.80;99.90
22940;DHT22;11636;52.086;5.090;2023-04-25T00:45:06;5.80;99.90
22940;DHT22;11636;52.086;5.090;2023-04-25T00:47:54;5.80;99.90
22940;DHT22;11636;52.086;5.090;2023-04-25T00:50:56;5.80;99.90
22940;DHT22;11636;52.086;5.090;2023-04-25T00:53:50;5.70;99.90
22940;DHT22;11636;52.086;5.090;2023-04-25T00:56:45;5.70;99.90
22940;DHT22;11636;52.086;5.090;2023-04-25T00:59:32;5.70;99.90
22940;DHT22;11636;52.086;5.090;2023-04-25T01:02:27;5.60;99.90
22940;DHT22;11636;52.086;5.090;2023-04-25T01:05:22;5.70;99.90
22940;DHT22;11636;52.086;5.090;2023-04-25T01:08:09;5.60;99.90
22940;DHT22;11636;52.086;5.090;2023-04-25T01:11:03;5.60;99.90
22940;DHT22;11636;52.086;5.090;2023-04-25T01:13:58;5.60;99.90
22940;DHT22;11636;52.086;5.090;2023-04-25T01:16:45;5.50;99.90
22940;DHT22;11636;52.086;5.090;2023-04-25T01:19:39;5.50;99.90
22940;DHT22;11636;52.086;5.090;2023-04-25T01:22:26;5.50;99.90
22940;DHT22;11636;52.086;5.090;2023-04-25T01:25:22;5.50;99.90
22940;DHT22;11636;52.086;5.090;2023-04-25T01:28:10;5.50;99.90
22940;DHT22;11636;52.086;5.090;2023-04-25T01:31:04;5.40;99.90
22940;DHT22;11636;52.086;5.090;2023-04-25T01:33:52;5.40;99.90
22940;DHT22;11636;52.086;5.090;2023-04-25T01:36:49;5.40;99.90
22940;DHT22;11636;52.086;5.090;2023-04-25T01:39:36;5.40;99.90
22940;DHT22;11636;52.086;5.090;2023-04-25T01:42:30;5.40;99.90
22940;DHT22;11636;52.086;5.090;2023-04-25T01:45:17;5.40;99.90
22940;DHT22;11636;52.086;5.090;2023-04-25T01:48:13;5.40;99.90
22940;DHT22;11636;52.086;5.090;2023-04-25T01:51:00;5.40;99.90
22940;DHT22;11636;52.086;5.090;2023-04-25T01:53:54;5.40;99.90
22940;DHT22;11636;52.086;5.090;2023-04-25T01:56:41;5.30;99.90
22940;DHT22;11636;52.086;5.090;2023-04-25T01:59:36;5.40;99.90
22940;DHT22;11636;52.086;5.090;2023-04-25T02:02:23;5.40;99.90
22940;DHT22;11636;52.086;5.090;2023-04-25T02:05:23;5.40;99.90
22940;DHT22;11636;52.086;5.090;2023-04-25T02:08:10;5.40;99.90
22940;DHT22;11636;52.086;5.090;2023-04-25T02:11:04;5.40;99.90
22940;DHT22;11636;52.086;5.090;2023-04-25T02:13:58;5.40;99.90
22940;DHT22;11636;52.086;5.090;2023-04-25T02:16:45;5.40;99.90
22940;DHT22;11636;52.086;5.090;2023-04-25T02:19:46;5.30;99.90
22940;DHT22;11636;52.086;5.090;2023-04-25T02:22:33;5.30;99.90
22940;DHT22;11636;52.086;5.090;2023-04-25T02:25:28;5.30;99.90
22940;DHT22;11636;52.086;5.090;2023-04-25T02:28:15;5.30;99.90
22940;DHT22;11636;52.086;5.090;2023-04-25T02:31:09;5.30;99.90
22940;DHT22;11636;52.086;5.090;2023-04-25T02:34:03;5.30;99.90
22940;DHT22;11636;52.086;5.090;2023-04-25T02:36:57;5.30;99.90
22940;DHT22;11636;52.086;5.090;2023-04-25T02:39:51;5.40;99.90
22940;DHT22;11636;52.086;5.090;2023-04-25T02:42:38;5.40;99.90
22940;DHT22;11636;52.086;5.090;2023-04-25T02:45:32;5.50;99.90
22940;DHT22;11636;52.086;5.090;2023-04-25T02:48:19;5.50;99.90
22940;DHT22;11636;52.086;5.090;2023-04-25T02:51:13;5.50;99.90
22940;DHT22;11636;52.086;5.090;2023-04-25T02:54:00;5.50;99.90
22940;DHT22;11636;52.086;5.090;2023-04-25T02:56:54;5.50;99.90
22940;DHT22;11636;52.086;5.090;2023-04-25T02:59:48;5.50;99.90
22940;DHT22;11636;52.086;5.090;2023-04-25T03:02:35;5.60;99.90
22940;DHT22;11636;52.086;5.090;2023-04-25T03:05:29;5.60;99.90
22940;DHT22;11636;52.086;5.090;2023-04-25T03:08:23;5.60;99.90
22940;DHT22;11636;52.086;5.090;2023-04-25T03:11:12;5.70;99.90
22940;DHT22;11636;52.086;5.090;2023-04-25T03:14:05;5.70;99.90
22940;DHT22;11636;52.086;5.090;2023-04-25T03:16:59;5.70;99.90
22940;DHT22;11636;52.086;5.090;2023-04-25T03:19:53;5.70;99.90
22940;DHT22;11636;52.086;5.090;2023-04-25T03:22:40;5.70;99.90
22940;DHT22;11636;52.086;5.090;2023-04-25T03:25:34;5.80;99.90
22940;DHT22;11636;52.086;5.090;2023-04-25T03:28:22;5.60;99.90
22940;DHT22;11636;52.086;5.090;2023-04-25T03:31:16;5.40;99.90
22940;DHT22;11636;52.086;5.090;2023-04-25T03:34:03;5.20;99.90
22940;DHT22;11636;52.086;5.090;2023-04-25T03:36:57;5.20;99.90
22940;DHT22;11636;52.086;5.090;2023-04-25T03:39:51;5.20;99.90
22940;DHT22;11636;52.086;5.090;2023-04-25T03:42:45;5.20;99.90
22940;DHT22;11636;52.086;5.090;2023-04-25T03:45:32;5.10;99.90
22940;DHT22;11636;52.086;5.090;2023-04-25T03:48:26;5.10;99.90
22940;DHT22;11636;52.086;5.090;2023-04-25T03:51:20;5.00;99.90
22940;DHT22;11636;52.086;5.090;2023-04-25T03:54:14;5.00;99.90
22940;DHT22;11636;52.086;5.090;2023-04-25T03:57:08;4.90;99.90
22940;DHT22;11636;52.086;5.090;2023-04-25T04:00:02;5.00;99.90
22940;DHT22;11636;52.086;5.090;2023-04-25T04:02:57;5.00;99.90
22940;DHT22;11636;52.086;5.090;2023-04-25T04:05:51;5.00;99.90
22940;DHT22;11636;52.086;5.090;2023-04-25T04:08:39;5.00;99.90
22940;DHT22;11636;52.086;5.090;2023-04-25T04:11:32;5.00;99.90
22940;DHT22;11636;52.086;5.090;2023-04-25T04:14:19;4.90;99.90
22940;DHT22;11636;52.086;5.090;2023-04-25T04:17:13;5.00;99.90
22940;DHT22;11636;52.086;5.090;2023-04-25T04:20:00;4.90;99.90
22940;DHT22;11636;52.086;5.090;2023-04-25T04:22:54;4.90;99.90
22940;DHT22;11636;52.086;5.090;2023-04-25T04:25:41;4.90;99.90
22940;DHT22;11636;52.086;5.090;2023-04-25T04:28:35;4.80;99.90
22940;DHT22;11636;52.086;5.090;2023-04-25T04:31:22;4.90;99.90
22940;DHT22;11636;52.086;5.090;2023-04-25T04:34:17;4.80;99.90
22940;DHT22;11636;52.086;5.090;2023-04-25T04:37:05;4.80;99.90
22940;DHT22;11636;52.086;5.090;2023-04-25T04:40:00;4.90;99.90
22940;DHT22;11636;52.086;5.090;2023-04-25T04:42:59;4.90;99.90
22940;DHT22;11636;52.086;5.090;2023-04-25T04:45:53;5.00;99.90
22940;DHT22;11636;52.086;5.090;2023-04-25T04:48:43;5.10;99.90
22940;DHT22;11636;52.086;5.090;2023-04-25T04:51:38;5.10;99.90
22940;DHT22;11636;52.086;5.090;2023-04-25T04:54:31;5.20;99.90
22940;DHT22;11636;52.086;5.090;2023-04-25T04:57:25;5.20;99.90
22940;DHT22;11636;52.086;5.090;2023-04-25T05:00:13;5.30;99.90
22940;DHT22;11636;52.086;5.090;2023-04-25T05:03:06;5.30;99.90
22940;DHT22;11636;52.086;5.090;2023-04-25T05:06:00;5.30;99.90
22940;DHT22;11636;52.086;5.090;2023-04-25T05:08:47;5.40;99.90
22940;DHT22;11636;52.086;5.090;2023-04-25T05:11:41;5.40;99.90
22940;DHT22;11636;52.086;5.090;2023-04-25T05:14:28;5.40;99.90
22940;DHT22;11636;52.086;5.090;2023-04-25T05:17:23;5.50;99.90
22940;DHT22;11636;52.086;5.090;2023-04-25T05:20:16;5.50;99.90
22940;DHT22;11636;52.086;5.090;2023-04-25T05:23:12;5.60;99.90
22940;DHT22;11636;52.086;5.090;2023-04-25T05:26:00;5.60;99.90
22940;DHT22;11636;52.086;5.090;2023-04-25T05:28:53;5.60;99.90
22940;DHT22;11636;52.086;5.090;2023-04-25T05:31:40;5.70;99.90
22940;DHT22;11636;52.086;5.090;2023-04-25T05:34:34;5.70;99.90
22940;DHT22;11636;52.086;5.090;2023-04-25T05:37:28;5.80;99.90
22940;DHT22;11636;52.086;5.090;2023-04-25T05:40:24;5.80;99.90
22940;DHT22;11636;52.086;5.090;2023-04-25T05:43:18;5.90;99.90
22940;DHT22;11636;52.086;5.090;2023-04-25T05:46:05;6.00;99.90
22940;DHT22;11636;52.086;5.090;2023-04-25T05:48:59;6.00;99.90
22940;DHT22;11636;52.086;5.090;2023-04-25T05:51:46;6.00;99.90
22940;DHT22;11636;52.086;5.090;2023-04-25T05:54:40;6.00;99.90
22940;DHT22;11636;52.086;5.090;2023-04-25T05:57:34;6.00;99.90
22940;DHT22;11636;52.086;5.090;2023-04-25T06:00:28;6.00;99.90
22940;DHT22;11636;52.086;5.090;2023-04-25T06:03:22;6.00;99.90
22940;DHT22;11636;52.086;5.090;2023-04-25T06:06:17;6.00;99.90
22940;DHT22;11636;52.086;5.090;2023-04-25T06:09:04;6.10;99.90
22940;DHT22;11636;52.086;5.090;2023-04-25T06:12:00;6.10;99.90
22940;DHT22;11636;52.086;5.090;2023-04-25T06:14:48;6.20;99.90
22940;DHT22;11636;52.086;5.090;2023-04-25T06:17:41;6.20;99.90
22940;DHT22;11636;52.086;5.090;2023-04-25T06:20:28;6.30;99.90
22940;DHT22;11636;52.086;5.090;2023-04-25T06:23:22;6.30;99.90
22940;DHT22;11636;52.086;5.090;2023-04-25T06:26:09;6.20;99.90
22940;DHT22;11636;52.086;5.090;2023-04-25T06:29:03;6.20;99.90
22940;DHT22;11636;52.086;5.090;2023-04-25T06:31:57;6.20;99.90
22940;DHT22;11636;52.086;5.090;2023-04-25T06:34:51;6.30;99.90
22940;DHT22;11636;52.086;5.090;2023-04-25T06:37:45;6.30;99.90
22940;DHT22;11636;52.086;5.090;2023-04-25T06:40:39;6.50;99.90
22940;DHT22;11636;52.086;5.090;2023-04-25T06:43:27;6.70;99.90
22940;DHT22;11636;52.086;5.090;2023-04-25T06:46:20;6.90;99.90
22940;DHT22;11636;52.086;5.090;2023-04-25T06:49:07;7.00;99.90
22940;DHT22;11636;52.086;5.090;2023-04-25T06:52:01;7.20;99.90
22940;DHT22;11636;52.086;5.090;2023-04-25T06:54:48;7.40;99.90
22940;DHT22;11636;52.086;5.090;2023-04-25T06:57:42;7.50;99.90
22940;DHT22;11636;52.086;5.090;2023-04-25T07:00:29;7.60;99.90
22940;DHT22;11636;52.086;5.090;2023-04-25T07:03:23;7.70;99.90
22940;DHT22;11636;52.086;5.090;2023-04-25T07:06:11;7.80;99.90
22940;DHT22;11636;52.086;5.090;2023-04-25T07:09:04;7.80;99.90
22940;DHT22;11636;52.086;5.090;2023-04-25T07:11:58;8.00;99.90
22940;DHT22;11636;52.086;5.090;2023-04-25T07:14:46;8.00;99.90
22940;DHT22;11636;52.086;5.090;2023-04-25T07:17:39;7.80;99.90
22940;DHT22;11636;52.086;5.090;2023-04-25T07:20:33;7.80;99.90
22940;DHT22;11636;52.086;5.090;2023-04-25T07:23:27;7.70;99.90
22940;DHT22;11636;52.086;5.090;2023-04-25T07:26:21;7.60;99.90
22940;DHT22;11636;52.086;5.090;2023-04-25T07:29:09;7.50;99.90
22940;DHT22;11636;52.086;5.090;2023-04-25T07:32:02;7.30;99.90
22940;DHT22;11636;52.086;5.090;2023-04-25T07:34:56;7.10;99.90
22940;DHT22;11636;52.086;5.090;2023-04-25T07:37:44;7.00;99.90
22940;DHT22;11636;52.086;5.090;2023-04-25T07:40:37;6.90;99.90
22940;DHT22;11636;52.086;5.090;2023-04-25T07:43:31;7.00;99.90
22940;DHT22;11636;52.086;5.090;2023-04-25T07:46:19;7.10;99.90
22940;DHT22;11636;52.086;5.090;2023-04-25T07:49:12;7.20;99.90
22940;DHT22;11636;52.086;5.090;2023-04-25T07:52:00;7.30;99.90
22940;DHT22;11636;52.086;5.090;2023-04-25T07:54:53;7.40;99.90
22940;DHT22;11636;52.086;5.090;2023-04-25T07:57:54;7.40;99.90
22940;DHT22;11636;52.086;5.090;2023-04-25T08:00:48;7.40;99.90
22940;DHT22;11636;52.086;5.090;2023-04-25T08:03:35;7.40;99.90
22940;DHT22;11636;52.086;5.090;2023-04-25T08:06:30;7.40;99.90
22940;DHT22;11636;52.086;5.090;2023-04-25T08:09:18;7.30;99.90
22940;DHT22;11636;52.086;5.090;2023-04-25T08:12:11;7.30;99.90
22940;DHT22;11636;52.086;5.090;2023-04-25T08:15:09;7.50;99.90
22940;DHT22;11636;52.086;5.090;2023-04-25T08:18:03;7.50;99.90
22940;DHT22;11636;52.086;5.090;2023-04-25T08:20:56;7.70;99.90
22940;DHT22;11636;52.086;5.090;2023-04-25T08:23:44;7.90;99.90
22940;DHT22;11636;52.086;5.090;2023-04-25T08:26:37;8.20;99.90
22940;DHT22;11636;52.086;5.090;2023-04-25T08:29:26;8.40;99.90
22940;DHT22;11636;52.086;5.090;2023-04-25T08:32:19;8.60;99.90
22940;DHT22;11636;52.086;5.090;2023-04-25T08:35:09;8.60;99.90
22940;DHT22;11636;52.086;5.090;2023-04-25T08:38:02;8.80;99.90
22940;DHT22;11636;52.086;5.090;2023-04-25T08:40:50;9.00;99.90
22940;DHT22;11636;52.086;5.090;2023-04-25T08:43:48;8.90;99.90
22940;DHT22;11636;52.086;5.090;2023-04-25T08:46:45;8.70;99.90
22940;DHT22;11636;52.086;5.090;2023-04-25T08:49:45;8.60;99.90
22940;DHT22;11636;52.086;5.090;2023-04-25T08:52:44;8.70;99.90
22940;DHT22;11636;52.086;5.090;2023-04-25T08:55:37;9.00;99.90
22940;DHT22;11636;52.086;5.090;2023-04-25T08:58:32;9.60;99.90
22940;DHT22;11636;52.086;5.090;2023-04-25T09:01:25;10.30;99.90
22940;DHT22;11636;52.086;5.090;2023-04-25T09:04:20;10.70;99.90
22940;DHT22;11636;52.086;5.090;2023-04-25T09:07:07;10.50;99.90
22940;DHT22;11636;52.086;5.090;2023-04-25T09:10:00;10.10;99.90
22940;DHT22;11636;52.086;5.090;2023-04-25T09:13:06;9.50;99.90
22940;DHT22;11636;52.086;5.090;2023-04-25T09:16:02;9.20;99.90
22940;DHT22;11636;52.086;5.090;2023-04-25T09:18:49;9.20;99.90
22940;DHT22;11636;52.086;5.090;2023-04-25T09:21:43;9.40;99.90
22940;DHT22;11636;52.086;5.090;2023-04-25T09:24:43;9.60;99.90
22940;DHT22;11636;52.086;5.090;2023-04-25T09:27:54;10.00;99.90
22940;DHT22;11636;52.086;5.090;2023-04-25T09:30:48;10.70;99.90
22940;DHT22;11636;52.086;5.090;2023-04-25T09:33:43;10.90;99.90
22940;DHT22;11636;52.086;5.090;2023-04-25T09:36:39;10.90;99.90
22940;DHT22;11636;52.086;5.090;2023-04-25T09:39:28;10.70;99.90
22940;DHT22;11636;52.086;5.090;2023-04-25T09:42:23;10.60;99.90
22940;DHT22;11636;52.086;5.090;2023-04-25T09:45:18;10.30;99.90
22940;DHT22;11636;52.086;5.090;2023-04-25T09:48:19;9.90;99.90
22940;DHT22;11636;52.086;5.090;2023-04-25T09:51:16;9.30;99.90
22940;DHT22;11636;52.086;5.090;2023-04-25T09:54:03;8.70;99.90
22940;DHT22;11636;52.086;5.090;2023-04-25T09:56:57;8.30;99.90
22940;DHT22;11636;52.086;5.090;2023-04-25T09:59:49;8.10;99.90
22940;DHT22;11636;52.086;5.090;2023-04-25T10:02:47;8.10;99.90
22940;DHT22;11636;52.086;5.090;2023-04-25T10:05:35;8.20;99.90
22940;DHT22;11636;52.086;5.090;2023-04-25T10:08:36;8.30;99.90
22940;DHT22;11636;52.086;5.090;2023-04-25T10:11:24;8.50;99.90
22940;DHT22;11636;52.086;5.090;2023-04-25T10:14:20;8.70;99.90
22940;DHT22;11636;52.086;5.090;2023-04-25T10:17:15;9.00;99.90
22940;DHT22;11636;52.086;5.090;2023-04-25T10:20:02;9.10;99.90
22940;DHT22;11636;52.086;5.090;2023-04-25T10:23:07;9.30;99.90
22940;DHT22;11636;52.086;5.090;2023-04-25T10:25:58;9.40;99.90
22940;DHT22;11636;52.086;5.090;2023-04-25T10:28:58;9.50;99.90
22940;DHT22;11636;52.086;5.090;2023-04-25T10:31:53;9.60;99.90
22940;DHT22;11636;52.086;5.090;2023-04-25T10:34:49;9.60;99.90
22940;DHT22;11636;52.086;5.090;2023-04-25T10:38:04;9.80;99.90
22940;DHT22;11636;52.086;5.090;2023-04-25T10:41:11;9.70;99.90
22940;DHT22;11636;52.086;5.090;2023-04-25T10:44:05;9.80;99.90
22940;DHT22;11636;52.086;5.090;2023-04-25T10:46:54;9.90;99.90
22940;DHT22;11636;52.086;5.090;2023-04-25T10:49:50;10.00;99.90
22940;DHT22;11636;52.086;5.090;2023-04-25T10:52:41;10.30;99.90
22940;DHT22;11636;52.086;5.090;2023-04-25T10:55:50;10.50;99.90
22940;DHT22;11636;52.086;5.090;2023-04-25T10:58:45;10.70;99.90
22940;DHT22;11636;52.086;5.090;2023-04-25T11:01:48;10.90;99.90
22940;DHT22;11636;52.086;5.090;2023-04-25T11:04:45;10.80;99.90
22940;DHT22;11636;52.086;5.090;2023-04-25T11:07:51;10.50;99.90
22940;DHT22;11636;52.086;5.090;2023-04-25T11:10:55;10.20;99.90
22940;DHT22;11636;52.086;5.090;2023-04-25T11:13:49;10.10;99.90
22940;DHT22;11636;52.086;5.090;2023-04-25T11:16:37;10.50;99.90
22940;DHT22;11636;52.086;5.090;2023-04-25T11:19:31;10.80;99.90
22940;DHT22;11636;52.086;5.090;2023-04-25T11:22:27;10.70;99.90
22940;DHT22;11636;52.086;5.090;2023-04-25T11:25:23;10.50;99.90
22940;DHT22;11636;52.086;5.090;2023-04-25T11:28:22;10.50;99.90
22940;DHT22;11636;52.086;5.090;2023-04-25T11:31:20;10.40;99.90
22940;DHT22;11636;52.086;5.090;2023-04-25T11:34:18;10.40;99.90
22940;DHT22;11636;52.086;5.090;2023-04-25T11:37:12;10.30;99.90
22940;DHT22;11636;52.086;5.090;2023-04-25T11:40:00;10.30;99.90
22940;DHT22;11636;52.086;5.090;2023-04-25T11:42:54;10.40;99.90
22940;DHT22;11636;52.086;5.090;2023-04-25T11:45:49;10.50;99.90
22940;DHT22;11636;52.086;5.090;2023-04-25T11:48:42;10.40;99.90
22940;DHT22;11636;52.086;5.090;2023-04-25T11:51:40;10.20;99.90
22940;DHT22;11636;52.086;5.090;2023-04-25T11:54:37;10.10;99.90
22940;DHT22;11636;52.086;5.090;2023-04-25T11:57:25;9.90;99.90
22940;DHT22;11636;52.086;5.090;2023-04-25T12:00:20;9.60;99.90
22940;DHT22;11636;52.086;5.090;2023-04-25T12:03:15;9.40;99.90
22940;DHT22;11636;52.086;5.090;2023-04-25T12:06:09;9.30;99.90
22940;DHT22;11636;52.086;5.090;2023-04-25T12:09:04;9.10;99.90
22940;DHT22;11636;52.086;5.090;2023-04-25T12:11:59;9.10;99.90
22940;DHT22;11636;52.086;5.090;2023-04-25T12:14:56;9.00;99.90
22940;DHT22;11636;52.086;5.090;2023-04-25T12:17:52;9.10;99.90
22940;DHT22;11636;52.086;5.090;2023-04-25T12:20:41;9.30;99.90
22940;DHT22;11636;52.086;5.090;2023-04-25T12:23:38;9.70;99.90
22940;DHT22;11636;52.086;5.090;2023-04-25T12:26:59;10.40;99.90
22940;DHT22;11636;52.086;5.090;2023-04-25T12:29:54;10.80;99.90
22940;DHT22;11636;52.086;5.090;2023-04-25T12:32:48;11.10;99.90
22940;DHT22;11636;52.086;5.090;2023-04-25T12:35:35;11.70;99.90
22940;DHT22;11636;52.086;5.090;2023-04-25T12:38:31;11.80;99.90
22940;DHT22;11636;52.086;5.090;2023-04-25T12:41:18;11.60;99.90
22940;DHT22;11636;52.086;5.090;2023-04-25T12:44:12;11.30;99.90
22940;DHT22;11636;52.086;5.090;2023-04-25T12:47:00;11.10;99.90
22940;DHT22;11636;52.086;5.090;2023-04-25T12:49:54;11.00;99.90
22940;DHT22;11636;52.086;5.090;2023-04-25T12:52:41;11.00;99.90
22940;DHT22;11636;52.086;5.090;2023-04-25T12:55:35;10.90;99.90
22940;DHT22;11636;52.086;5.090;2023-04-25T12:58:22;10.70;99.90
22940;DHT22;11636;52.086;5.090;2023-04-25T13:01:17;10.60;99.90
22940;DHT22;11636;52.086;5.090;2023-04-25T13:04:04;10.90;99.90
22940;DHT22;11636;52.086;5.090;2023-04-25T13:06:58;11.00;99.50
22940;DHT22;11636;52.086;5.090;2023-04-25T13:09:45;11.10;97.80
22940;DHT22;11636;52.086;5.090;2023-04-25T13:12:39;11.20;96.30
22940;DHT22;11636;52.086;5.090;2023-04-25T13:15:33;11.40;95.60
22940;DHT22;11636;52.086;5.090;2023-04-25T13:18:28;11.70;94.90
22940;DHT22;11636;52.086;5.090;2023-04-25T13:21:15;11.80;94.10
22940;DHT22;11636;52.086;5.090;2023-04-25T13:24:09;12.10;94.60
22940;DHT22;11636;52.086;5.090;2023-04-25T13:27:09;12.60;93.80
22940;DHT22;11636;52.086;5.090;2023-04-25T13:30:04;12.80;93.10
22940;DHT22;11636;52.086;5.090;2023-04-25T13:32:54;12.70;92.40
22940;DHT22;11636;52.086;5.090;2023-04-25T13:35:50;12.30;91.50
22940;DHT22;11636;52.086;5.090;2023-04-25T13:38:47;11.70;91.60
22940;DHT22;11636;52.086;5.090;2023-04-25T13:41:36;11.30;92.70
22940;DHT22;11636;52.086;5.090;2023-04-25T13:44:36;11.50;93.10
22940;DHT22;11636;52.086;5.090;2023-04-25T13:47:30;12.00;92.90
22940;DHT22;11636;52.086;5.090;2023-04-25T13:50:17;12.30;91.30
22940;DHT22;11636;52.086;5.090;2023-04-25T13:53:11;12.40;92.20
22940;DHT22;11636;52.086;5.090;2023-04-25T13:55:59;12.10;93.30
22940;DHT22;11636;52.086;5.090;2023-04-25T13:58:53;11.60;95.70
22940;DHT22;11636;52.086;5.090;2023-04-25T14:01:40;11.20;98.00
22940;DHT22;11636;52.086;5.090;2023-04-25T14:04:34;10.90;99.90
22940;DHT22;11636;52.086;5.090;2023-04-25T14:07:21;10.70;99.90
22940;DHT22;11636;52.086;5.090;2023-04-25T14:10:15;10.60;99.90
22940;DHT22;11636;52.086;5.090;2023-04-25T14:13:09;11.00;99.90
22940;DHT22;11636;52.086;5.090;2023-04-25T14:16:03;11.10;99.90
22940;DHT22;11636;52.086;5.090;2023-04-25T14:18:58;11.40;99.90
22940;DHT22;11636;52.086;5.090;2023-04-25T14:21:45;11.10;99.90
22940;DHT22;11636;52.086;5.090;2023-04-25T14:24:39;11.00;99.90
22940;DHT22;11636;52.086;5.090;2023-04-25T14:27:26;10.90;99.90
22940;DHT22;11636;52.086;5.090;2023-04-25T14:30:27;10.70;99.90
22940;DHT22;11636;52.086;5.090;2023-04-25T14:33:21;10.40;99.90
22940;DHT22;11636;52.086;5.090;2023-04-25T14:36:15;10.00;99.90
22940;DHT22;11636;52.086;5.090;2023-04-25T14:39:09;9.80;99.90
22940;DHT22;11636;52.086;5.090;2023-04-25T14:41:56;9.90;99.90
22940;DHT22;11636;52.086;5.090;2023-04-25T14:44:52;9.90;99.90
22940;DHT22;11636;52.086;5.090;2023-04-25T14:47:39;9.90;99.90
22940;DHT22;11636;52.086;5.090;2023-04-25T14:50:33;10.30;99.90
22940;DHT22;11636;52.086;5.090;2023-04-25T14:53:21;11.00;99.90
22940;DHT22;11636;52.086;5.090;2023-04-25T14:56:14;11.50;99.80
22940;DHT22;11636;52.086;5.090;2023-04-25T14:59:01;11.40;96.90
22940;DHT22;11636;52.086;5.090;2023-04-25T15:01:55;11.40;96.80
22940;DHT22;11636;52.086;5.090;2023-04-25T15:04:45;11.20;96.50
22940;DHT22;11636;52.086;5.090;2023-04-25T15:07:39;11.00;96.20
22940;DHT22;11636;52.086;5.090;2023-04-25T15:10:33;10.60;96.30
22940;DHT22;11636;52.086;5.090;2023-04-25T15:13:27;10.60;95.00
22940;DHT22;11636;52.086;5.090;2023-04-25T15:16:21;10.70;95.80
22940;DHT22;11636;52.086;5.090;2023-04-25T15:19:08;10.80;95.70
22940;DHT22;11636;52.086;5.090;2023-04-25T15:22:02;11.10;96.90
22940;DHT22;11636;52.086;5.090;2023-04-25T15:24:56;11.20;98.50
22940;DHT22;11636;52.086;5.090;2023-04-25T15:27:50;11.20;98.70
22940;DHT22;11636;52.086;5.090;2023-04-25T15:30:38;10.90;98.90
22940;DHT22;11636;52.086;5.090;2023-04-25T15:33:32;10.50;99.60
22940;DHT22;11636;52.086;5.090;2023-04-25T15:36:19;10.30;99.90
22940;DHT22;11636;52.086;5.090;2023-04-25T15:39:14;10.10;99.90
22940;DHT22;11636;52.086;5.090;2023-04-25T15:42:02;10.10;99.90
22940;DHT22;11636;52.086;5.090;2023-04-25T15:44:56;10.10;99.90
22940;DHT22;11636;52.086;5.090;2023-04-25T15:47:44;10.10;99.90
22940;DHT22;11636;52.086;5.090;2023-04-25T15:50:37;10.30;99.90
22940;DHT22;11636;52.086;5.090;2023-04-25T15:53:24;10.30;99.90
22940;DHT22;11636;52.086;5.090;2023-04-25T15:56:18;10.10;99.90
22940;DHT22;11636;52.086;5.090;2023-04-25T15:59:05;10.00;99.90
22940;DHT22;11636;52.086;5.090;2023-04-25T16:01:59;10.30;99.90
22940;DHT22;11636;52.086;5.090;2023-04-25T16:04:53;10.70;99.90
22940;DHT22;11636;52.086;5.090;2023-04-25T16:07:48;10.60;99.10
22940;DHT22;11636;52.086;5.090;2023-04-25T16:10:36;10.30;97.80
22940;DHT22;11636;52.086;5.090;2023-04-25T16:13:30;10.10;98.40
22940;DHT22;11636;52.086;5.090;2023-04-25T16:16:25;10.10;98.80
22940;DHT22;11636;52.086;5.090;2023-04-25T16:19:13;10.30;99.00
22940;DHT22;11636;52.086;5.090;2023-04-25T16:22:07;10.70;98.10
22940;DHT22;11636;52.086;5.090;2023-04-25T16:25:02;11.10;97.00
22940;DHT22;11636;52.086;5.090;2023-04-25T16:27:56;11.20;96.20
22940;DHT22;11636;52.086;5.090;2023-04-25T16:30:43;11.20;96.60
22940;DHT22;11636;52.086;5.090;2023-04-25T16:33:37;11.20;96.40
22940;DHT22;11636;52.086;5.090;2023-04-25T16:36:24;11.20;96.70
22940;DHT22;11636;52.086;5.090;2023-04-25T16:39:19;11.10;96.40
22940;DHT22;11636;52.086;5.090;2023-04-25T16:42:07;11.00;96.60
22940;DHT22;11636;52.086;5.090;2023-04-25T16:45:02;10.90;97.00
22940;DHT22;11636;52.086;5.090;2023-04-25T16:47:57;10.80;97.20
22940;DHT22;11636;52.086;5.090;2023-04-25T16:50:45;10.70;98.40
22940;DHT22;11636;52.086;5.090;2023-04-25T16:53:38;10.60;98.90
22940;DHT22;11636;52.086;5.090;2023-04-25T16:56:25;10.60;98.60
22940;DHT22;11636;52.086;5.090;2023-04-25T16:59:19;10.60;98.20
22940;DHT22;11636;52.086;5.090;2023-04-25T17:02:10;10.70;98.10
22940;DHT22;11636;52.086;5.090;2023-04-25T17:05:05;10.70;97.20
22940;DHT22;11636;52.086;5.090;2023-04-25T17:07:52;10.40;97.00
22940;DHT22;11636;52.086;5.090;2023-04-25T17:10:45;10.20;96.50
22940;DHT22;11636;52.086;5.090;2023-04-25T17:13:32;9.90;97.10
22940;DHT22;11636;52.086;5.090;2023-04-25T17:16:36;9.80;97.30
22940;DHT22;11636;52.086;5.090;2023-04-25T17:19:24;9.60;97.60
22940;DHT22;11636;52.086;5.090;2023-04-25T17:22:18;9.50;98.60
22940;DHT22;11636;52.086;5.090;2023-04-25T17:25:12;9.40;99.70
22940;DHT22;11636;52.086;5.090;2023-04-25T17:28:06;9.20;99.80
22940;DHT22;11636;52.086;5.090;2023-04-25T17:31:00;9.20;99.60
22940;DHT22;11636;52.086;5.090;2023-04-25T17:33:48;9.10;99.90
22940;DHT22;11636;52.086;5.090;2023-04-25T17:36:43;9.10;99.90
22940;DHT22;11636;52.086;5.090;2023-04-25T17:39:37;9.10;99.90
22940;DHT22;11636;52.086;5.090;2023-04-25T17:42:31;9.00;99.90
22940;DHT22;11636;52.086;5.090;2023-04-25T17:45:25;8.90;99.90
22940;DHT22;11636;52.086;5.090;2023-04-25T17:48:20;8.70;99.90
22940;DHT22;11636;52.086;5.090;2023-04-25T17:51:14;8.60;99.90
22940;DHT22;11636;52.086;5.090;2023-04-25T17:54:02;8.50;99.90
22940;DHT22;11636;52.086;5.090;2023-04-25T17:56:55;8.50;99.90
22940;DHT22;11636;52.086;5.090;2023-04-25T17:59:43;8.40;99.90
22940;DHT22;11636;52.086;5.090;2023-04-25T18:02:36;8.30;99.90
22940;DHT22;11636;52.086;5.090;2023-04-25T18:05:30;8.20;99.90
22940;DHT22;11636;52.086;5.090;2023-04-25T18:08:18;8.10;99.90
22940;DHT22;11636;52.086;5.090;2023-04-25T18:11:14;8.00;99.90
22940;DHT22;11636;52.086;5.090;2023-04-25T18:14:01;7.90;99.90
22940;DHT22;11636;52.086;5.090;2023-04-25T18:16:55;7.90;99.90
22940;DHT22;11636;52.086;5.090;2023-04-25T18:19:42;7.80;99.90
22940;DHT22;11636;52.086;5.090;2023-04-25T18:22:37;7.90;99.90